Terminal Aerodrome Forecast
Issued by NWS Bismarck, ND

Home | Current Version | Previous Version | Graphics & Text | Print | Product List | Glossary On
Versions: 1 2 3 4 5 6 7 8 9 10 11 12 13 14 15 16 17 18 19 20 21
000
FTUS43 KBIS 221100
TAFISN
TAF
KISN 221134Z 2212/2312 04009KT P6SM OVC020
     FM221500 05009KT P6SM VCTS BKN035CB
     FM230000 06012KT P6SM BKN050
     FM230600 06011KT P6SM -SHRA OVC040=

USA.gov is the U.S. government's official web portal to all federal, state and local government web resources and services.